sensor_id;sensor_type;location;lat;lon;timestamp;pressure;altitude;pressure_sealevel;temperature;humidity
39209;BME280;24929;51.982;4.664;2022-09-30T00:01:33;77111.69;;;-143.36;nan
39209;BME280;24929;51.982;4.664;2022-09-30T00:03:59;77115.69;;;-143.36;nan
39209;BME280;24929;51.982;4.664;2022-09-30T00:06:26;77109.69;;;-143.36;nan
39209;BME280;24929;51.982;4.664;2022-09-30T00:08:53;77107.66;;;-143.36;nan
39209;BME280;24929;51.982;4.664;2022-09-30T00:11:22;77091.63;;;-143.36;nan
39209;BME280;24929;51.982;4.664;2022-09-30T00:13:51;77087.59;;;-143.36;nan
39209;BME280;24929;51.982;4.664;2022-09-30T00:16:18;77093.63;;;-143.36;nan
39209;BME280;24929;51.982;4.664;2022-09-30T00:18:44;77101.66;;;-143.36;nan
39209;BME280;24929;51.982;4.664;2022-09-30T00:21:10;77089.59;;;-143.36;nan
39209;BME280;24929;51.982;4.664;2022-09-30T00:23:37;77085.59;;;-143.36;nan
39209;BME280;24929;51.982;4.664;2022-09-30T00:26:05;77075.56;;;-143.36;nan
39209;BME280;24929;51.982;4.664;2022-09-30T00:28:31;77079.56;;;-143.36;nan
39209;BME280;24929;51.982;4.664;2022-09-30T00:31:02;77055.50;;;-143.36;nan
39209;BME280;24929;51.982;4.664;2022-09-30T00:33:29;77069.53;;;-143.36;nan
39209;BME280;24929;51.982;4.664;2022-09-30T00:35:54;77069.53;;;-143.36;nan
39209;BME280;24929;51.982;4.664;2022-09-30T00:38:20;77051.47;;;-143.36;nan
39209;BME280;24929;51.982;4.664;2022-09-30T00:40:45;77043.44;;;-143.36;nan
39209;BME280;24929;51.982;4.664;2022-09-30T00:43:46;77013.34;;;-143.36;nan
39209;BME280;24929;51.982;4.664;2022-09-30T00:49:02;77033.41;;;-143.36;nan
39209;BME280;24929;51.982;4.664;2022-09-30T00:51:34;77031.41;;;-143.36;nan
39209;BME280;24929;51.982;4.664;2022-09-30T00:54:03;77037.44;;;-143.36;nan
39209;BME280;24929;51.982;4.664;2022-09-30T00:56:33;77047.47;;;-143.36;nan
39209;BME280;24929;51.982;4.664;2022-09-30T00:59:07;77037.44;;;-143.36;nan
39209;BME280;24929;51.982;4.664;2022-09-30T01:01:37;77039.44;;;-143.36;nan
39209;BME280;24929;51.982;4.664;2022-09-30T01:04:20;77043.44;;;-143.36;nan
39209;BME280;24929;51.982;4.664;2022-09-30T01:06:46;77069.53;;;-143.36;nan
39209;BME280;24929;51.982;4.664;2022-09-30T01:09:12;77071.53;;;-143.36;nan
39209;BME280;24929;51.982;4.664;2022-09-30T01:11:38;77071.53;;;-143.36;nan
39209;BME280;24929;51.982;4.664;2022-09-30T01:14:10;77063.50;;;-143.36;nan
39209;BME280;24929;51.982;4.664;2022-09-30T01:30:47;77121.72;;;-143.36;nan
39209;BME280;24929;51.982;4.664;2022-09-30T01:38:37;77157.84;;;-143.36;nan
39209;BME280;24929;51.982;4.664;2022-09-30T01:41:11;77173.91;;;-143.36;nan
39209;BME280;24929;51.982;4.664;2022-09-30T01:43:42;77195.97;;;-143.36;nan
39209;BME280;24929;51.982;4.664;2022-09-30T01:46:21;77193.97;;;-143.36;nan
39209;BME280;24929;51.982;4.664;2022-09-30T01:48:56;77181.94;;;-143.36;nan
39209;BME280;24929;51.982;4.664;2022-09-30T01:51:34;77171.91;;;-143.36;nan
39209;BME280;24929;51.982;4.664;2022-09-30T01:54:14;77183.94;;;-143.36;nan
39209;BME280;24929;51.982;4.664;2022-09-30T01:56:45;77200.00;;;-143.36;nan
39209;BME280;24929;51.982;4.664;2022-09-30T02:01:54;77187.94;;;-143.36;nan
39209;BME280;24929;51.982;4.664;2022-09-30T02:04:31;77185.94;;;-143.36;nan
39209;BME280;24929;51.982;4.664;2022-09-30T02:07:02;77187.94;;;-143.36;nan
39209;BME280;24929;51.982;4.664;2022-09-30T02:09:46;77171.91;;;-143.36;nan
39209;BME280;24929;51.982;4.664;2022-09-30T02:12:18;77175.91;;;-143.36;nan
39209;BME280;24929;51.982;4.664;2022-09-30T02:14:48;77179.94;;;-143.36;nan
39209;BME280;24929;51.982;4.664;2022-09-30T02:17:19;77165.88;;;-143.36;nan
39209;BME280;24929;51.982;4.664;2022-09-30T02:19:54;77163.88;;;-143.36;nan
39209;BME280;24929;51.982;4.664;2022-09-30T02:22:25;77161.84;;;-143.36;nan
39209;BME280;24929;51.982;4.664;2022-09-30T02:25:00;77153.84;;;-143.36;nan
39209;BME280;24929;51.982;4.664;2022-09-30T02:27:38;77151.81;;;-143.36;nan
39209;BME280;24929;51.982;4.664;2022-09-30T02:30:06;77157.84;;;-143.36;nan
39209;BME280;24929;51.982;4.664;2022-09-30T02:32:39;77159.84;;;-143.36;nan
39209;BME280;24929;51.982;4.664;2022-09-30T02:35:13;77165.88;;;-143.36;nan
39209;BME280;24929;51.982;4.664;2022-09-30T02:37:44;77157.84;;;-143.36;nan
39209;BME280;24929;51.982;4.664;2022-09-30T02:40:21;77185.94;;;-143.36;nan
39209;BME280;24929;51.982;4.664;2022-09-30T02:42:48;77193.97;;;-143.36;nan
39209;BME280;24929;51.982;4.664;2022-09-30T02:45:20;77179.94;;;-143.36;nan
39209;BME280;24929;51.982;4.664;2022-09-30T02:50:31;77210.03;;;-143.36;nan
39209;BME280;24929;51.982;4.664;2022-09-30T02:53:21;77185.94;;;-143.36;nan
39209;BME280;24929;51.982;4.664;2022-09-30T02:58:46;77212.03;;;-143.36;nan
39209;BME280;24929;51.982;4.664;2022-09-30T03:01:13;77218.06;;;-143.36;nan
39209;BME280;24929;51.982;4.664;2022-09-30T03:03:52;77200.00;;;-143.36;nan
39209;BME280;24929;51.982;4.664;2022-09-30T03:06:19;77222.06;;;-143.36;nan
39209;BME280;24929;51.982;4.664;2022-09-30T03:08:45;77218.06;;;-143.36;nan
39209;BME280;24929;51.982;4.664;2022-09-30T03:11:15;77212.03;;;-143.36;nan
39209;BME280;24929;51.982;4.664;2022-09-30T03:14:14;77195.97;;;-143.36;nan
39209;BME280;24929;51.982;4.664;2022-09-30T03:17:34;77204.00;;;-143.36;nan
39209;BME280;24929;51.982;4.664;2022-09-30T03:22:53;77230.09;;;-143.36;nan
39209;BME280;24929;51.982;4.664;2022-09-30T03:28:33;77228.09;;;-143.36;nan
39209;BME280;24929;51.982;4.664;2022-09-30T03:37:01;77242.16;;;-143.36;nan
39209;BME280;24929;51.982;4.664;2022-09-30T03:42:22;77258.19;;;-143.36;nan
39209;BME280;24929;51.982;4.664;2022-09-30T03:45:04;77286.31;;;-143.36;nan
39209;BME280;24929;51.982;4.664;2022-09-30T03:47:34;77290.31;;;-143.36;nan
39209;BME280;24929;51.982;4.664;2022-09-30T03:50:05;77278.28;;;-143.36;nan
39209;BME280;24929;51.982;4.664;2022-09-30T03:52:32;77294.31;;;-143.36;nan
39209;BME280;24929;51.982;4.664;2022-09-30T03:55:01;77302.34;;;-143.36;nan
39209;BME280;24929;51.982;4.664;2022-09-30T03:57:28;77300.34;;;-143.36;nan
39209;BME280;24929;51.982;4.664;2022-09-30T03:59:57;77296.34;;;-143.36;nan
39209;BME280;24929;51.982;4.664;2022-09-30T04:02:23;77296.34;;;-143.36;nan
39209;BME280;24929;51.982;4.664;2022-09-30T04:04:49;77302.34;;;-143.36;nan
39209;BME280;24929;51.982;4.664;2022-09-30T04:07:14;77298.34;;;-143.36;nan
39209;BME280;24929;51.982;4.664;2022-09-30T04:09:40;77314.41;;;-143.36;nan
39209;BME280;24929;51.982;4.664;2022-09-30T04:12:06;77318.41;;;-143.36;nan
39209;BME280;24929;51.982;4.664;2022-09-30T04:14:31;77312.38;;;-143.36;nan
39209;BME280;24929;51.982;4.664;2022-09-30T04:16:57;77312.38;;;-143.36;nan
39209;BME280;24929;51.982;4.664;2022-09-30T04:19:23;77302.34;;;-143.36;nan
39209;BME280;24929;51.982;4.664;2022-09-30T04:21:52;77294.31;;;-143.36;nan
39209;BME280;24929;51.982;4.664;2022-09-30T04:24:19;77296.34;;;-143.36;nan
39209;BME280;24929;51.982;4.664;2022-09-30T04:26:45;77324.44;;;-143.36;nan
39209;BME280;24929;51.982;4.664;2022-09-30T04:29:10;77318.41;;;-143.36;nan
39209;BME280;24929;51.982;4.664;2022-09-30T04:31:35;77332.47;;;-143.36;nan
39209;BME280;24929;51.982;4.664;2022-09-30T04:34:01;77326.44;;;-143.36;nan
39209;BME280;24929;51.982;4.664;2022-09-30T04:36:26;77320.41;;;-143.36;nan
39209;BME280;24929;51.982;4.664;2022-09-30T04:38:51;77324.44;;;-143.36;nan
39209;BME280;24929;51.982;4.664;2022-09-30T04:41:17;77338.47;;;-143.36;nan
39209;BME280;24929;51.982;4.664;2022-09-30T04:43:44;77320.41;;;-143.36;nan
39209;BME280;24929;51.982;4.664;2022-09-30T04:46:11;77326.44;;;-143.36;nan
39209;BME280;24929;51.982;4.664;2022-09-30T04:48:37;77326.44;;;-143.36;nan
39209;BME280;24929;51.982;4.664;2022-09-30T04:51:03;77334.47;;;-143.36;nan
39209;BME280;24929;51.982;4.664;2022-09-30T04:53:29;77332.47;;;-143.36;nan
39209;BME280;24929;51.982;4.664;2022-09-30T04:56:00;77304.38;;;-143.36;nan
39209;BME280;24929;51.982;4.664;2022-09-30T04:58:27;77334.47;;;-143.36;nan
39209;BME280;24929;51.982;4.664;2022-09-30T05:01:03;77326.44;;;-143.36;nan
39209;BME280;24929;51.982;4.664;2022-09-30T05:03:29;77348.53;;;-143.36;nan
39209;BME280;24929;51.982;4.664;2022-09-30T05:05:54;77348.53;;;-143.36;nan
39209;BME280;24929;51.982;4.664;2022-09-30T05:08:20;77362.56;;;-143.36;nan
39209;BME280;24929;51.982;4.664;2022-09-30T05:10:56;77340.50;;;-143.36;nan
39209;BME280;24929;51.982;4.664;2022-09-30T05:13:23;77356.53;;;-143.36;nan
39209;BME280;24929;51.982;4.664;2022-09-30T05:15:49;77370.59;;;-143.36;nan
39209;BME280;24929;51.982;4.664;2022-09-30T05:18:15;77376.63;;;-143.36;nan
39209;BME280;24929;51.982;4.664;2022-09-30T05:20:41;77376.63;;;-143.36;nan
39209;BME280;24929;51.982;4.664;2022-09-30T05:23:06;77382.63;;;-143.36;nan
39209;BME280;24929;51.982;4.664;2022-09-30T05:25:33;77356.53;;;-143.36;nan
39209;BME280;24929;51.982;4.664;2022-09-30T05:27:59;77368.59;;;-143.36;nan
39209;BME280;24929;51.982;4.664;2022-09-30T05:30:24;77368.59;;;-143.36;nan
39209;BME280;24929;51.982;4.664;2022-09-30T05:32:49;77368.59;;;-143.36;nan
39209;BME280;24929;51.982;4.664;2022-09-30T05:35:15;77342.50;;;-143.36;nan
39209;BME280;24929;51.982;4.664;2022-09-30T05:37:40;77346.50;;;-143.36;nan
39209;BME280;24929;51.982;4.664;2022-09-30T05:40:07;77340.50;;;-143.36;nan
39209;BME280;24929;51.982;4.664;2022-09-30T05:42:32;77368.59;;;-143.36;nan
39209;BME280;24929;51.982;4.664;2022-09-30T05:45:00;77374.63;;;-143.36;nan
39209;BME280;24929;51.982;4.664;2022-09-30T05:47:25;77390.66;;;-143.36;nan
39209;BME280;24929;51.982;4.664;2022-09-30T05:49:51;77400.72;;;-143.36;nan
39209;BME280;24929;51.982;4.664;2022-09-30T05:52:16;77374.63;;;-143.36;nan
39209;BME280;24929;51.982;4.664;2022-09-30T05:54:41;77356.53;;;-143.36;nan
39209;BME280;24929;51.982;4.664;2022-09-30T05:57:07;77372.59;;;-143.36;nan
39209;BME280;24929;51.982;4.664;2022-09-30T05:59:32;77376.63;;;-143.36;nan
39209;BME280;24929;51.982;4.664;2022-09-30T06:01:58;77378.63;;;-143.36;nan
39209;BME280;24929;51.982;4.664;2022-09-30T06:04:23;77366.59;;;-143.36;nan
39209;BME280;24929;51.982;4.664;2022-09-30T06:06:48;77368.59;;;-143.36;nan
39209;BME280;24929;51.982;4.664;2022-09-30T06:09:15;77354.53;;;-143.36;nan
39209;BME280;24929;51.982;4.664;2022-09-30T06:11:40;77358.56;;;-143.36;nan
39209;BME280;24929;51.982;4.664;2022-09-30T06:14:07;77356.53;;;-143.36;nan
39209;BME280;24929;51.982;4.664;2022-09-30T06:16:32;77360.56;;;-143.36;nan
39209;BME280;24929;51.982;4.664;2022-09-30T06:25:54;77316.41;;;-143.36;nan
39209;BME280;24929;51.982;4.664;2022-09-30T06:28:20;77338.47;;;-143.36;nan
39209;BME280;24929;51.982;4.664;2022-09-30T06:30:46;77330.44;;;-143.36;nan
39209;BME280;24929;51.982;4.664;2022-09-30T06:33:13;77326.44;;;-143.36;nan
39209;BME280;24929;51.982;4.664;2022-09-30T06:35:39;77336.47;;;-143.36;nan
39209;BME280;24929;51.982;4.664;2022-09-30T06:38:09;77306.38;;;-143.36;nan
39209;BME280;24929;51.982;4.664;2022-09-30T06:40:35;77310.38;;;-143.36;nan
39209;BME280;24929;51.982;4.664;2022-09-30T06:43:01;77298.34;;;-143.36;nan
39209;BME280;24929;51.982;4.664;2022-09-30T06:45:27;77286.31;;;-143.36;nan
39209;BME280;24929;51.982;4.664;2022-09-30T06:47:59;77278.28;;;-143.36;nan
39209;BME280;24929;51.982;4.664;2022-09-30T06:50:25;77266.22;;;-143.36;nan
39209;BME280;24929;51.982;4.664;2022-09-30T06:52:51;77242.16;;;-143.36;nan
39209;BME280;24929;51.982;4.664;2022-09-30T06:55:19;77206.00;;;-143.36;nan
39209;BME280;24929;51.982;4.664;2022-09-30T06:57:46;77208.03;;;-143.36;nan
39209;BME280;24929;51.982;4.664;2022-09-30T07:00:12;77208.03;;;-143.36;nan
39209;BME280;24929;51.982;4.664;2022-09-30T07:02:38;77185.94;;;-143.36;nan
39209;BME280;24929;51.982;4.664;2022-09-30T07:05:04;77155.84;;;-143.36;nan
39209;BME280;24929;51.982;4.664;2022-09-30T07:07:30;77143.78;;;-143.36;nan
39209;BME280;24929;51.982;4.664;2022-09-30T07:09:59;77131.75;;;-143.36;nan
39209;BME280;24929;51.982;4.664;2022-09-30T07:12:25;77105.66;;;-143.36;nan
39209;BME280;24929;51.982;4.664;2022-09-30T07:14:51;77081.59;;;-143.36;nan
39209;BME280;24929;51.982;4.664;2022-09-30T07:17:17;77043.44;;;-143.36;nan
39209;BME280;24929;51.982;4.664;2022-09-30T07:19:42;76985.25;;;-143.36;nan
39209;BME280;24929;51.982;4.664;2022-09-30T07:22:08;76908.97;;;-143.36;nan
39209;BME280;24929;51.982;4.664;2022-09-30T07:24:53;76806.63;;;-143.36;nan
39209;BME280;24929;51.982;4.664;2022-09-30T07:27:18;76756.47;;;-143.36;nan
39209;BME280;24929;51.982;4.664;2022-09-30T07:29:45;76750.44;;;-143.36;nan
39209;BME280;24929;51.982;4.664;2022-09-30T07:32:11;76658.13;;;-143.36;nan
39209;BME280;24929;51.982;4.664;2022-09-30T07:34:38;76615.97;;;-143.36;nan
39209;BME280;24929;51.982;4.664;2022-09-30T07:37:10;76628.03;;;-143.36;nan
39209;BME280;24929;51.982;4.664;2022-09-30T07:39:39;76533.72;;;-143.36;nan
39209;BME280;24929;51.982;4.664;2022-09-30T07:42:04;76519.66;;;-143.36;nan
39209;BME280;24929;51.982;4.664;2022-09-30T07:44:29;76587.88;;;-143.36;nan
39209;BME280;24929;51.982;4.664;2022-09-30T07:46:55;76650.09;;;-143.36;nan
39209;BME280;24929;51.982;4.664;2022-09-30T07:49:21;76668.16;;;-143.36;nan
39209;BME280;24929;51.982;4.664;2022-09-30T07:51:54;76698.25;;;-143.36;nan
39209;BME280;24929;51.982;4.664;2022-09-30T07:54:23;76772.50;;;-143.36;nan
39209;BME280;24929;51.982;4.664;2022-09-30T07:56:50;76798.59;;;-143.36;nan
39209;BME280;24929;51.982;4.664;2022-09-30T07:59:16;76792.59;;;-143.36;nan
39209;BME280;24929;51.982;4.664;2022-09-30T08:01:42;76796.59;;;-143.36;nan
39209;BME280;24929;51.982;4.664;2022-09-30T08:04:10;76798.59;;;-143.36;nan
39209;BME280;24929;51.982;4.664;2022-09-30T08:06:39;76776.53;;;-143.36;nan
39209;BME280;24929;51.982;4.664;2022-09-30T08:09:07;76766.50;;;-143.36;nan
39209;BME280;24929;51.982;4.664;2022-09-30T08:11:35;76778.53;;;-143.36;nan
39209;BME280;24929;51.982;4.664;2022-09-30T08:14:02;76778.53;;;-143.36;nan
39209;BME280;24929;51.982;4.664;2022-09-30T08:16:28;76776.53;;;-143.36;nan
39209;BME280;24929;51.982;4.664;2022-09-30T08:19:01;76750.44;;;-143.36;nan
39209;BME280;24929;51.982;4.664;2022-09-30T08:21:26;76748.44;;;-143.36;nan
39209;BME280;24929;51.982;4.664;2022-09-30T08:23:52;76764.50;;;-143.36;nan
39209;BME280;24929;51.982;4.664;2022-09-30T08:26:19;76758.47;;;-143.36;nan
39209;BME280;24929;51.982;4.664;2022-09-30T08:28:45;76750.44;;;-143.36;nan
39209;BME280;24929;51.982;4.664;2022-09-30T08:31:21;76734.38;;;-143.36;nan
39209;BME280;24929;51.982;4.664;2022-09-30T08:33:47;76726.34;;;-143.36;nan
39209;BME280;24929;51.982;4.664;2022-09-30T08:36:14;76706.28;;;-143.36;nan
39209;BME280;24929;51.982;4.664;2022-09-30T08:38:40;76662.13;;;-143.36;nan
39209;BME280;24929;51.982;4.664;2022-09-30T08:44:30;76577.84;;;-143.36;nan
39209;BME280;24929;51.982;4.664;2022-09-30T08:49:51;76565.81;;;-143.36;nan
39209;BME280;24929;51.982;4.664;2022-09-30T08:52:24;76545.75;;;-143.36;nan
39209;BME280;24929;51.982;4.664;2022-09-30T08:54:52;76511.63;;;-143.36;nan
39209;BME280;24929;51.982;4.664;2022-09-30T08:57:19;76513.63;;;-143.36;nan
39209;BME280;24929;51.982;4.664;2022-09-30T08:59:54;76463.47;;;-143.36;nan
39209;BME280;24929;51.982;4.664;2022-09-30T09:02:31;76445.41;;;-143.36;nan
39209;BME280;24929;51.982;4.664;2022-09-30T09:05:00;76409.28;;;-143.36;nan
39209;BME280;24929;51.982;4.664;2022-09-30T09:18:41;76427.34;;;-143.36;nan
39209;BME280;24929;51.982;4.664;2022-09-30T09:24:00;76371.16;;;-143.36;nan
39209;BME280;24929;51.982;4.664;2022-09-30T09:26:35;76355.13;;;-143.36;nan
39209;BME280;24929;51.982;4.664;2022-09-30T09:29:31;76312.97;;;-143.36;nan
39209;BME280;24929;51.982;4.664;2022-09-30T09:32:12;76312.97;;;-143.36;nan
39209;BME280;24929;51.982;4.664;2022-09-30T09:34:39;76317.00;;;-143.36;nan
39209;BME280;24929;51.982;4.664;2022-09-30T11:25:30;75993.94;;;-143.36;nan
39209;BME280;24929;51.982;4.664;2022-09-30T11:28:29;75939.75;;;-143.36;nan
39209;BME280;24929;51.982;4.664;2022-09-30T11:34:03;75915.69;;;-143.36;nan
39209;BME280;24929;51.982;4.664;2022-09-30T11:36:42;76016.00;;;-143.36;nan
39209;BME280;24929;51.982;4.664;2022-09-30T11:39:22;76044.09;;;-143.36;nan
39209;BME280;24929;51.982;4.664;2022-09-30T11:44:32;76188.56;;;-143.36;nan
39209;BME280;24929;51.982;4.664;2022-09-30T11:50:16;76180.53;;;-143.36;nan
39209;BME280;24929;51.982;4.664;2022-09-30T11:55:45;76070.19;;;-143.36;nan
39209;BME280;24929;51.982;4.664;2022-09-30T11:58:21;76098.28;;;-143.36;nan
39209;BME280;24929;51.982;4.664;2022-09-30T12:00:53;76054.13;;;-143.36;nan
39209;BME280;24929;51.982;4.664;2022-09-30T12:03:37;76048.09;;;-143.36;nan
39209;BME280;24929;51.982;4.664;2022-09-30T12:06:13;76052.13;;;-143.36;nan
39209;BME280;24929;51.982;4.664;2022-09-30T12:08:49;76030.06;;;-143.36;nan
39209;BME280;24929;51.982;4.664;2022-09-30T12:16:56;75999.94;;;-143.36;nan
39209;BME280;24929;51.982;4.664;2022-09-30T12:19:30;75973.88;;;-143.36;nan
39209;BME280;24929;51.982;4.664;2022-09-30T12:22:05;76032.06;;;-143.36;nan
39209;BME280;24929;51.982;4.664;2022-09-30T12:24:37;76068.19;;;-143.36;nan
39209;BME280;24929;51.982;4.664;2022-09-30T12:27:09;76086.22;;;-143.36;nan
39209;BME280;24929;51.982;4.664;2022-09-30T12:29:42;76086.22;;;-143.36;nan
39209;BME280;24929;51.982;4.664;2022-09-30T12:33:10;76128.38;;;-143.36;nan
39209;BME280;24929;51.982;4.664;2022-09-30T12:49:40;76166.50;;;-143.36;nan
39209;BME280;24929;51.982;4.664;2022-09-30T12:52:12;76150.44;;;-143.36;nan
39209;BME280;24929;51.982;4.664;2022-09-30T12:54:42;76156.47;;;-143.36;nan
39209;BME280;24929;51.982;4.664;2022-09-30T12:57:18;76144.41;;;-143.36;nan
39209;BME280;24929;51.982;4.664;2022-09-30T12:59:53;76128.38;;;-143.36;nan
39209;BME280;24929;51.982;4.664;2022-09-30T13:04:51;75997.94;;;-143.36;nan
39209;BME280;24929;51.982;4.664;2022-09-30T13:07:20;76001.97;;;-143.36;nan
39209;BME280;24929;51.982;4.664;2022-09-30T13:10:01;75985.91;;;-143.36;nan
39209;BME280;24929;51.982;4.664;2022-09-30T13:12:47;76014.00;;;-143.36;nan
39209;BME280;24929;51.982;4.664;2022-09-30T13:17:48;76007.97;;;-143.36;nan
39209;BME280;24929;51.982;4.664;2022-09-30T13:20:52;76007.97;;;-143.36;nan
39209;BME280;24929;51.982;4.664;2022-09-30T13:28:48;75997.94;;;-143.36;nan
39209;BME280;24929;51.982;4.664;2022-09-30T13:31:16;76014.00;;;-143.36;nan
39209;BME280;24929;51.982;4.664;2022-09-30T13:36:29;75997.94;;;-143.36;nan
39209;BME280;24929;51.982;4.664;2022-09-30T13:42:06;76005.97;;;-143.36;nan
39209;BME280;24929;51.982;4.664;2022-09-30T13:47:36;75967.84;;;-143.36;nan
39209;BME280;24929;51.982;4.664;2022-09-30T13:50:24;76022.03;;;-143.36;nan
39209;BME280;24929;51.982;4.664;2022-09-30T13:52:54;76016.00;;;-143.36;nan
39209;BME280;24929;51.982;4.664;2022-09-30T13:55:24;76022.03;;;-143.36;nan
39209;BME280;24929;51.982;4.664;2022-09-30T14:00:46;75995.94;;;-143.36;nan
39209;BME280;24929;51.982;4.664;2022-09-30T14:09:12;75969.84;;;-143.36;nan
39209;BME280;24929;51.982;4.664;2022-09-30T14:12:09;75943.78;;;-143.36;nan
39209;BME280;24929;51.982;4.664;2022-09-30T14:20:53;75977.88;;;-143.36;nan
39209;BME280;24929;51.982;4.664;2022-09-30T14:23:23;76014.00;;;-143.36;nan
39209;BME280;24929;51.982;4.664;2022-09-30T14:31:46;75983.91;;;-143.36;nan
39209;BME280;24929;51.982;4.664;2022-09-30T14:34:13;75993.94;;;-143.36;nan
39209;BME280;24929;51.982;4.664;2022-09-30T14:36:40;75995.94;;;-143.36;nan
39209;BME280;24929;51.982;4.664;2022-09-30T14:39:17;75971.88;;;-143.36;nan
39209;BME280;24929;51.982;4.664;2022-09-30T14:41:51;75973.88;;;-143.36;nan
39209;BME280;24929;51.982;4.664;2022-09-30T14:44:17;75977.88;;;-143.36;nan
39209;BME280;24929;51.982;4.664;2022-09-30T14:46:45;75977.88;;;-143.36;nan
39209;BME280;24929;51.982;4.664;2022-09-30T14:49:16;75977.88;;;-143.36;nan
39209;BME280;24929;51.982;4.664;2022-09-30T14:51:47;75967.84;;;-143.36;nan
39209;BME280;24929;51.982;4.664;2022-09-30T14:54:21;75965.84;;;-143.36;nan
39209;BME280;24929;51.982;4.664;2022-09-30T14:56:48;75975.88;;;-143.36;nan
39209;BME280;24929;51.982;4.664;2022-09-30T14:59:26;75969.84;;;-143.36;nan
39209;BME280;24929;51.982;4.664;2022-09-30T15:02:18;76010.00;;;-143.36;nan
39209;BME280;24929;51.982;4.664;2022-09-30T15:04:56;76016.00;;;-143.36;nan
39209;BME280;24929;51.982;4.664;2022-09-30T15:07:23;76044.09;;;-143.36;nan
39209;BME280;24929;51.982;4.664;2022-09-30T15:09:48;76062.16;;;-143.36;nan
39209;BME280;24929;51.982;4.664;2022-09-30T15:12:18;76084.22;;;-143.36;nan
39209;BME280;24929;51.982;4.664;2022-09-30T15:17:26;76094.25;;;-143.36;nan
39209;BME280;24929;51.982;4.664;2022-09-30T15:19:52;76122.34;;;-143.36;nan
39209;BME280;24929;51.982;4.664;2022-09-30T15:22:18;76094.25;;;-143.36;nan
39209;BME280;24929;51.982;4.664;2022-09-30T15:25:07;76092.25;;;-143.36;nan
39209;BME280;24929;51.982;4.664;2022-09-30T15:27:56;76146.44;;;-143.36;nan
39209;BME280;24929;51.982;4.664;2022-09-30T15:30:26;76118.34;;;-143.36;nan
39209;BME280;24929;51.982;4.664;2022-09-30T15:33:11;76162.47;;;-143.36;nan
39209;BME280;24929;51.982;4.664;2022-09-30T15:35:43;76166.50;;;-143.36;nan
39209;BME280;24929;51.982;4.664;2022-09-30T15:40:44;76172.50;;;-143.36;nan
39209;BME280;24929;51.982;4.664;2022-09-30T15:43:11;76176.53;;;-143.36;nan
39209;BME280;24929;51.982;4.664;2022-09-30T15:45:42;76168.50;;;-143.36;nan
39209;BME280;24929;51.982;4.664;2022-09-30T15:50:46;76180.53;;;-143.36;nan
39209;BME280;24929;51.982;4.664;2022-09-30T15:55:39;76184.56;;;-143.36;nan
39209;BME280;24929;51.982;4.664;2022-09-30T15:58:40;76182.53;;;-143.36;nan
39209;BME280;24929;51.982;4.664;2022-09-30T16:01:20;76178.53;;;-143.36;nan
39209;BME280;24929;51.982;4.664;2022-09-30T16:03:58;76188.56;;;-143.36;nan
39209;BME280;24929;51.982;4.664;2022-09-30T16:06:36;76194.59;;;-143.36;nan
39209;BME280;24929;51.982;4.664;2022-09-30T16:09:16;76208.63;;;-143.36;nan
39209;BME280;24929;51.982;4.664;2022-09-30T16:11:45;76224.69;;;-143.36;nan
39209;BME280;24929;51.982;4.664;2022-09-30T16:14:21;76216.66;;;-143.36;nan
39209;BME280;24929;51.982;4.664;2022-09-30T16:16:53;76206.63;;;-143.36;nan
39209;BME280;24929;51.982;4.664;2022-09-30T16:19:19;76218.66;;;-143.36;nan
39209;BME280;24929;51.982;4.664;2022-09-30T16:21:50;76224.69;;;-143.36;nan
39209;BME280;24929;51.982;4.664;2022-09-30T16:26:48;76246.75;;;-143.36;nan
39209;BME280;24929;51.982;4.664;2022-09-30T16:29:14;76264.81;;;-143.36;nan
39209;BME280;24929;51.982;4.664;2022-09-30T16:31:41;76262.81;;;-143.36;nan
39209;BME280;24929;51.982;4.664;2022-09-30T16:34:13;76266.81;;;-143.36;nan
39209;BME280;24929;51.982;4.664;2022-09-30T16:36:42;76274.84;;;-143.36;nan
39209;BME280;24929;51.982;4.664;2022-09-30T16:39:11;76254.78;;;-143.36;nan
39209;BME280;24929;51.982;4.664;2022-09-30T16:41:39;76270.84;;;-143.36;nan
39209;BME280;24929;51.982;4.664;2022-09-30T16:44:05;76274.84;;;-143.36;nan
39209;BME280;24929;51.982;4.664;2022-09-30T16:46:31;76276.84;;;-143.36;nan
39209;BME280;24929;51.982;4.664;2022-09-30T16:48:58;76264.81;;;-143.36;nan
39209;BME280;24929;51.982;4.664;2022-09-30T16:51:23;76286.88;;;-143.36;nan
39209;BME280;24929;51.982;4.664;2022-09-30T16:53:49;76302.94;;;-143.36;nan
39209;BME280;24929;51.982;4.664;2022-09-30T16:56:16;76296.91;;;-143.36;nan
39209;BME280;24929;51.982;4.664;2022-09-30T16:58:42;76298.94;;;-143.36;nan
39209;BME280;24929;51.982;4.664;2022-09-30T17:01:19;76288.91;;;-143.36;nan
39209;BME280;24929;51.982;4.664;2022-09-30T17:03:45;76302.94;;;-143.36;nan
39209;BME280;24929;51.982;4.664;2022-09-30T17:06:11;76302.94;;;-143.36;nan
39209;BME280;24929;51.982;4.664;2022-09-30T17:08:37;76323.00;;;-143.36;nan
39209;BME280;24929;51.982;4.664;2022-09-30T17:11:02;76317.00;;;-143.36;nan
39209;BME280;24929;51.982;4.664;2022-09-30T17:13:28;76327.03;;;-143.36;nan
39209;BME280;24929;51.982;4.664;2022-09-30T17:15:56;76329.03;;;-143.36;nan
39209;BME280;24929;51.982;4.664;2022-09-30T17:18:22;76341.06;;;-143.36;nan
39209;BME280;24929;51.982;4.664;2022-09-30T17:20:48;76349.09;;;-143.36;nan
39209;BME280;24929;51.982;4.664;2022-09-30T17:23:17;76343.06;;;-143.36;nan
39209;BME280;24929;51.982;4.664;2022-09-30T17:25:42;76347.09;;;-143.36;nan
39209;BME280;24929;51.982;4.664;2022-09-30T17:28:09;76327.03;;;-143.36;nan
39209;BME280;24929;51.982;4.664;2022-09-30T17:30:35;76339.06;;;-143.36;nan
39209;BME280;24929;51.982;4.664;2022-09-30T17:33:01;76347.09;;;-143.36;nan
39209;BME280;24929;51.982;4.664;2022-09-30T17:35:27;76339.06;;;-143.36;nan
39209;BME280;24929;51.982;4.664;2022-09-30T17:37:52;76333.03;;;-143.36;nan
39209;BME280;24929;51.982;4.664;2022-09-30T17:40:18;76327.03;;;-143.36;nan
39209;BME280;24929;51.982;4.664;2022-09-30T17:43:02;76351.09;;;-143.36;nan